• vieta
  • image
  • image
  • image
mod_vvisit_countermod_vvisit_countermod_vvisit_countermod_vvisit_countermod_vvisit_countermod_vvisit_counter
mod_vvisit_counterŠiandien189
mod_vvisit_counterVakar670
mod_vvisit_counterŠią savaitę3759
mod_vvisit_counterPraėjusią savaitę5838
mod_vvisit_counterŠį mėnesį9597
mod_vvisit_counterPraėjusį mėnesį14939
mod_vvisit_counterViso290508

Mes turime: 1 svečius, 1 bots online
Jūsų IP: 54.163.49.19
 , 
Šiandien: Vas 13, 2016

Šiandien

Šeštadienis, 13 Vasaris 2016

Orų prognozė

Šiauliai 2 °C
   

Orų prognozė aviacijai

[source: ADDS]
METAR
EYSA 132050Z 13013KT 9000 -RA OVC006 02/01 Q1000 R14L/29//95 R14R/29//95 YLO1 NOSIG =
TAF
TAF EYSA 132000Z 1321/1406 12012KT 6000 BKN007 OVC020 TEMPO 1321/1323 3000 RA BKN004 BECMG 1323/1324 3000 SNRA OVC005 TEMPO 1400/1406 1200 BR BKN002 =
SR / SS: 05:54 / 15:29 UTC (EYSA 2016-02-13)

Paieška

Lankytojai

Mes turime 2 svečius online

tic logo lt